Time;durP1;ratioP1;P1;durP2;ratioP2;P2;SDS_P1;SDS_P2;PMS_P1;PMS_P2;Temp;Humidity;BMP_temperature;BMP_pressure;BME280_temperature;BME280_humidity;BME280_pressure;Samples;Min_cycle;Max_cycle;Signal;HPM_P1;HPM_P2
2022/08/03 00:01:58;;;;;;;11.43;3.88;;;;;;;18.20;100.00;101560.09;5205659;28;20395;-71
2022/08/03 00:04:28;;;;;;;10.55;4.57;;;;;;;18.14;100.00;101563.63;5203298;28;20546;-72
2022/08/03 00:06:59;;;;;;;14.73;4.35;;;;;;;18.09;100.00;101558.78;5205111;28;20152;-71
2022/08/03 00:09:30;;;;;;;11.75;4.03;;;;;;;18.05;100.00;101559.38;5205187;28;20068;-72
2022/08/03 00:12:00;;;;;;;14.40;4.43;;;;;;;18.03;100.00;101567.72;5205522;28;20047;-73
2022/08/03 00:14:31;;;;;;;10.90;4.70;;;;;;;17.99;100.00;101562.88;5204656;28;20480;-72
2022/08/03 00:17:02;;;;;;;8.20;3.80;;;;;;;17.96;100.00;101560.53;5205009;28;20029;-71
2022/08/03 00:19:32;;;;;;;8.82;3.85;;;;;;;17.93;100.00;101548.22;5204808;28;20065;-72
2022/08/03 00:22:03;;;;;;;13.68;3.65;;;;;;;17.93;100.00;101550.09;5191974;28;20062;-73
2022/08/03 00:24:35;;;;;;;16.20;3.72;;;;;;;17.93;100.00;101550.94;5204348;28;20372;-72
2022/08/03 00:27:05;;;;;;;15.93;4.38;;;;;;;17.90;100.00;101548.59;5204874;28;20029;-72
2022/08/03 00:29:36;;;;;;;12.88;4.35;;;;;;;17.86;100.00;101547.31;5205026;28;20028;-72
2022/08/03 00:32:06;;;;;;;10.88;4.20;;;;;;;17.83;100.00;101547.72;5204324;28;20087;-73
2022/08/03 00:34:37;;;;;;;13.70;4.90;;;;;;;17.80;100.00;101550.81;5204319;28;20033;-74
2022/08/03 00:37:07;;;;;;;11.68;4.38;;;;;;;17.73;100.00;101542.66;5203918;28;20032;-73
2022/08/03 00:39:38;;;;;;;8.88;3.65;;;;;;;17.65;100.00;101550.03;5204679;28;20026;-72
2022/08/03 00:42:08;;;;;;;10.82;4.25;;;;;;;17.56;100.00;101549.34;5204564;28;20037;-72
2022/08/03 00:44:42;;;;;;;13.80;3.40;;;;;;;17.53;100.00;101549.75;5203645;28;20104;-73
2022/08/03 00:47:12;;;;;;;8.20;3.45;;;;;;;17.50;100.00;101541.97;5204179;28;20029;-72
2022/08/03 00:49:43;;;;;;;13.98;3.83;;;;;;;17.47;100.00;101540.50;5204344;28;20033;-72
2022/08/03 00:52:15;;;;;;;13.55;3.85;;;;;;;17.45;100.00;101537.13;5195094;28;20426;-73
2022/08/03 00:54:45;;;;;;;11.20;4.32;;;;;;;17.43;100.00;101536.50;5201161;28;20029;-74
2022/08/03 00:57:16;;;;;;;9.80;4.63;;;;;;;17.41;100.00;101526.88;5201665;28;20026;-72
2022/08/03 00:59:47;;;;;;;9.52;4.55;;;;;;;17.38;100.00;101538.13;5204089;28;20025;-72
2022/08/03 01:02:17;;;;;;;9.40;3.88;;;;;;;17.39;100.00;101528.94;5204322;28;20033;-72
2022/08/03 01:04:48;;;;;;;11.77;3.88;;;;;;;17.43;100.00;101535.66;5202939;28;20032;-72
2022/08/03 01:07:55;;;;;;;6.22;4.28;;;;;;;17.48;100.00;101533.22;5204242;28;20529;-73
2022/08/03 01:11:12;;;;;;;12.77;3.85;;;;;;;17.45;100.00;101531.72;5204238;28;20055;-72
2022/08/03 01:14:04;;;;;;;13.85;4.50;;;;;;;17.41;100.00;101524.16;5204398;28;20423;-72
2022/08/03 01:16:58;;;;;;;9.25;3.83;;;;;;;17.34;100.00;101522.22;5193925;28;20079;-73
2022/08/03 01:19:49;;;;;;;7.60;4.13;;;;;;;17.27;100.00;101525.91;5191342;28;20029;-72
2022/08/03 01:22:38;;;;;;;10.18;3.60;;;;;;;17.21;100.00;101527.50;5203344;28;20072;-73
2022/08/03 01:25:37;;;;;;;9.68;3.97;;;;;;;17.19;100.00;101520.63;5203788;28;20506;-73
2022/08/03 01:28:38;;;;;;;14.88;3.70;;;;;;;17.18;100.00;101527.09;5203673;28;20029;-73
2022/08/03 01:31:10;;;;;;;;;;;;;;;17.14;100.00;101529.34;5192949;28;20029;-73
2022/08/03 01:33:45;;;;;;;13.40;3.95;;;;;;;17.05;100.00;101522.34;5204035;28;19931;-75
2022/08/03 01:36:18;;;;;;;;;;;;;;;16.99;100.00;101525.84;5204135;28;20072;-73
2022/08/03 01:38:57;;;;;;;7.70;3.33;;;;;;;16.94;100.00;101518.28;5203199;28;19917;-75
2022/08/03 01:41:32;;;;;;;7.30;3.35;;;;;;;16.92;100.00;101525.78;5203838;28;20039;-73
2022/08/03 01:44:07;;;;;;;8.95;3.10;;;;;;;16.86;100.00;101520.25;5203789;28;20417;-73
2022/08/03 01:46:39;;;;;;;6.50;3.55;;;;;;;16.78;100.00;101519.34;5203524;28;20109;-73
2022/08/03 01:49:12;;;;;;;8.50;3.55;;;;;;;16.74;100.00;101514.50;5203329;28;20032;-73
2022/08/03 01:51:47;;;;;;;10.85;3.42;;;;;;;16.76;100.00;101517.84;5198180;28;20061;-73
2022/08/03 01:54:19;;;;;;;6.38;3.10;;;;;;;16.77;100.00;101514.97;5195553;28;20036;-73
2022/08/03 01:56:53;;;;;;;4.00;2.38;;;;;;;16.75;100.00;101514.31;5190554;28;20063;-73
2022/08/03 01:59:25;;;;;;;6.13;2.70;;;;;;;16.70;100.00;101508.59;5202203;28;20029;-73
2022/08/03 02:01:58;;;;;;;4.70;2.25;;;;;;;16.67;100.00;101508.16;5203738;28;20057;-73
2022/08/03 02:04:29;;;;;;;64.05;4.20;;;;;;;16.63;100.00;101513.09;5201464;28;20053;-72
2022/08/03 02:07:01;;;;;;;6.20;3.28;;;;;;;16.58;100.00;101508.25;5203579;28;20483;-72
2022/08/03 02:09:35;;;;;;;8.82;3.88;;;;;;;16.54;100.00;101509.66;5203663;28;20021;-72
2022/08/03 02:12:09;;;;;;;8.77;3.47;;;;;;;16.51;100.00;101514.59;5203190;28;20064;-73
2022/08/03 02:14:42;;;;;;;6.03;2.83;;;;;;;16.49;100.00;101506.66;5202655;28;20471;-73
2022/08/03 02:17:14;;;;;;;6.82;2.88;;;;;;;16.50;100.00;101507.50;5203255;28;20071;-72
2022/08/03 02:19:46;;;;;;;10.15;3.25;;;;;;;16.52;100.00;101511.72;5203314;28;20030;-75
2022/08/03 02:22:17;;;;;;;9.82;3.30;;;;;;;16.52;100.00;101508.19;5202452;28;20037;-73
2022/08/03 02:24:47;;;;;;;8.07;3.50;;;;;;;16.49;100.00;101511.25;5202523;28;20026;-73
2022/08/03 02:27:22;;;;;;;5.45;3.10;;;;;;;16.45;100.00;101512.66;5203297;28;20022;-73
2022/08/03 02:29:59;;;;;;;9.15;3.03;;;;;;;16.38;100.00;101509.03;5203167;28;20095;-72
2022/08/03 02:32:35;;;;;;;9.43;3.83;;;;;;;16.32;100.00;101505.22;5203142;28;20026;-72
2022/08/03 02:35:10;;;;;;;7.43;3.15;;;;;;;16.30;100.00;101507.25;5202117;28;20523;-74
2022/08/03 02:37:45;;;;;;;9.75;3.45;;;;;;;16.29;100.00;101500.16;5203666;28;20483;-73
2022/08/03 02:40:19;;;;;;;6.70;3.35;;;;;;;16.27;100.00;101500.34;5202905;28;20113;-73
2022/08/03 02:42:55;;;;;;;5.13;2.75;;;;;;;16.24;100.00;101492.59;5203245;28;20017;-72
2022/08/03 02:45:28;;;;;;;8.38;2.42;;;;;;;16.20;100.00;101490.44;5202003;28;20034;-73
2022/08/03 02:48:02;;;;;;;8.88;3.25;;;;;;;16.19;100.00;101497.75;5202596;28;20032;-73
2022/08/03 02:50:34;;;;;;;4.22;2.60;;;;;;;16.16;100.00;101489.97;5203316;28;20109;-73
2022/08/03 02:53:06;;;;;;;6.68;3.00;;;;;;;16.14;100.00;101492.03;5202852;28;20108;-72
2022/08/03 02:55:38;;;;;;;5.07;2.97;;;;;;;16.10;100.00;101490.72;5201842;28;20360;-72
2022/08/03 02:58:12;;;;;;;8.27;3.33;;;;;;;16.05;100.00;101487.75;5200382;28;20029;-72
2022/08/03 03:00:44;;;;;;;7.13;3.10;;;;;;;16.02;100.00;101485.44;5205751;28;20037;-72
2022/08/03 03:03:14;;;;;;;9.77;3.67;;;;;;;15.99;100.00;101485.78;5205326;28;20026;-72
2022/08/03 03:05:45;;;;;;;11.63;3.25;;;;;;;15.96;100.00;101489.69;5206032;28;20382;-73
2022/08/03 03:08:18;;;;;;;5.93;3.17;;;;;;;15.91;100.00;101475.88;5206158;28;20095;-73
2022/08/03 03:10:49;;;;;;;8.73;3.60;;;;;;;15.88;100.00;101486.25;5206833;28;20033;-73
2022/08/03 03:13:21;;;;;;;11.10;4.25;;;;;;;15.86;100.00;101481.00;5207091;28;20025;-72
2022/08/03 03:15:53;;;;;;;5.05;3.00;;;;;;;15.80;100.00;101479.91;5206509;28;20387;-72
2022/08/03 03:18:26;;;;;;;5.00;1.85;;;;;;;15.76;100.00;101481.31;5206332;28;20021;-73
2022/08/03 03:20:59;;;;;;;2.08;0.88;;;;;;;15.70;100.00;101484.72;5205370;28;20025;-72
2022/08/03 03:23:32;;;;;;;3.03;1.55;;;;;;;15.66;100.00;101488.00;5206821;28;20395;-73
2022/08/03 03:26:04;;;;;;;5.38;1.50;;;;;;;15.64;100.00;101487.34;5205853;28;20083;-73
2022/08/03 03:28:36;;;;;;;4.05;1.08;;;;;;;15.63;100.00;101483.81;5206087;28;20479;-72
2022/08/03 03:31:07;;;;;;;2.80;1.70;;;;;;;15.61;100.00;101484.97;5206282;28;20033;-73
2022/08/03 03:33:38;;;;;;;11.63;1.75;;;;;;;15.57;100.00;101487.22;5206440;28;20032;-72
2022/08/03 03:36:10;;;;;;;37.67;3.03;;;;;;;15.52;100.00;101489.63;5205895;28;20033;-72
2022/08/03 03:38:40;;;;;;;6.47;2.20;;;;;;;15.48;100.00;101486.44;5205891;28;20021;-73
2022/08/03 03:41:11;;;;;;;207.65;8.98;;;;;;;15.41;100.00;101481.94;5206417;28;20422;-72
2022/08/03 03:43:42;;;;;;;67.18;3.80;;;;;;;15.31;100.00;101484.06;5205638;28;20083;-73
2022/08/03 03:46:13;;;;;;;5.18;1.70;;;;;;;15.25;100.00;101485.63;5205911;28;20033;-72
2022/08/03 03:48:44;;;;;;;1.30;1.20;;;;;;;15.22;100.00;101481.44;5206113;28;20079;-73
2022/08/03 03:51:14;;;;;;;3.47;1.90;;;;;;;15.25;100.00;101477.50;5206266;28;20034;-72
2022/08/03 03:53:58;;;;;;;4.97;1.83;;;;;;;15.27;100.00;101483.59;5206562;28;20533;-72
2022/08/03 03:56:29;;;;;;;4.00;1.73;;;;;;;15.27;100.00;101489.00;5201965;28;20491;-73
2022/08/03 03:58:59;;;;;;;11.73;2.20;;;;;;;15.24;100.00;101486.66;5205836;28;20033;-72
2022/08/03 04:01:30;;;;;;;2.78;1.88;;;;;;;15.20;100.00;101480.75;5205841;28;20026;-73
2022/08/03 04:10:57;;;;;;;7.40;2.20;;;;;;;15.18;100.00;101482.81;5203952;28;20053;-72
2022/08/03 04:12:31;;;;;;;7.15;2.50;;;;;;;15.12;100.00;101488.94;5204185;28;20029;-72
2022/08/03 04:15:03;;;;;;;1.90;1.48;;;;;;;15.07;100.00;101483.25;5204668;28;20026;-71
2022/08/03 04:17:34;;;;;;;2.60;1.30;;;;;;;15.07;100.00;101485.09;5205354;28;20021;-72
2022/08/03 04:20:06;;;;;;;5.72;1.73;;;;;;;15.08;100.00;101484.91;5205054;28;20068;-72
2022/08/03 04:22:38;;;;;;;1.42;1.08;;;;;;;15.09;100.00;101492.00;5204457;28;20026;-72
2022/08/03 04:25:16;;;;;;;4.13;1.45;;;;;;;15.11;100.00;101486.41;5204757;28;20056;-75
2022/08/03 04:27:48;;;;;;;5.90;2.13;;;;;;;15.15;100.00;101493.13;5205168;28;20052;-73
2022/08/03 04:30:19;;;;;;;4.47;2.30;;;;;;;15.13;100.00;101490.63;5205171;28;20026;-73
2022/08/03 04:32:50;;;;;;;8.05;2.40;;;;;;;15.12;100.00;101491.66;5205345;28;20025;-71
2022/08/03 04:35:24;;;;;;;7.43;3.15;;;;;;;15.12;100.00;101497.06;5204445;28;20032;-72
2022/08/03 04:38:00;;;;;;;6.28;2.88;;;;;;;15.12;100.00;101501.63;5204861;28;20475;-72
2022/08/03 04:40:33;;;;;;;10.95;2.70;;;;;;;15.11;100.00;101498.06;5204862;28;20494;-72
2022/08/03 04:43:05;;;;;;;13.38;2.83;;;;;;;15.10;100.00;101498.25;5204941;28;20025;-73
2022/08/03 04:45:37;;;;;;;9.40;2.88;;;;;;;15.10;100.00;101499.06;5204354;28;20060;-72
2022/08/03 04:48:08;;;;;;;9.95;3.13;;;;;;;15.10;100.00;101509.88;5203977;28;20029;-72
2022/08/03 04:50:40;;;;;;;6.65;2.15;;;;;;;15.11;100.00;101508.88;5204746;28;20305;-72
2022/08/03 04:53:11;;;;;;;3.70;1.40;;;;;;;15.15;100.00;101502.06;5203379;28;20027;-72
2022/08/03 04:55:42;;;;;;;3.08;1.40;;;;;;;15.19;100.00;101514.22;5203144;28;20399;-73
2022/08/03 04:58:12;;;;;;;2.17;1.48;;;;;;;15.21;100.00;101508.63;5202365;28;20030;-73
2022/08/03 05:00:44;;;;;;;2.50;1.90;;;;;;;15.26;100.00;101515.19;5204846;28;20032;-73
2022/08/03 05:03:14;;;;;;;4.82;3.13;;;;;;;15.33;100.00;101515.31;5202801;28;20131;-73
2022/08/03 05:05:45;;;;;;;6.38;2.83;;;;;;;15.42;100.00;101510.69;5203736;28;20103;-73
2022/08/03 05:08:15;;;;;;;5.95;2.40;;;;;;;15.48;100.00;101516.19;5204571;28;20037;-73
2022/08/03 05:10:46;;;;;;;7.90;3.35;;;;;;;15.53;100.00;101521.88;5204153;28;20490;-73
2022/08/03 05:13:17;;;;;;;6.55;2.20;;;;;;;15.55;100.00;101517.13;5204134;28;20112;-73
2022/08/03 05:15:48;;;;;;;5.53;2.80;;;;;;;15.61;100.00;101520.97;5204016;28;20112;-72
2022/08/03 05:18:18;;;;;;;7.18;2.75;;;;;;;15.68;100.00;101515.72;5203921;28;20033;-73
2022/08/03 05:20:49;;;;;;;6.88;2.55;;;;;;;15.74;100.00;101523.09;5203045;28;20028;-73
2022/08/03 05:23:19;;;;;;;12.32;3.25;;;;;;;15.82;100.00;101527.59;5204113;28;20415;-72
2022/08/03 05:25:50;;;;;;;6.28;2.55;;;;;;;15.93;100.00;101521.72;5202978;28;20035;-73
2022/08/03 05:28:20;;;;;;;7.75;2.70;;;;;;;16.03;100.00;101525.84;5202650;28;20021;-72
2022/08/03 05:30:51;;;;;;;8.50;2.90;;;;;;;16.19;100.00;101526.69;5204400;28;20083;-72
2022/08/03 05:33:21;;;;;;;10.50;2.85;;;;;;;16.35;100.00;101520.22;5203936;28;20028;-72
2022/08/03 05:35:52;;;;;;;7.88;3.05;;;;;;;16.54;100.00;101522.34;5203444;28;20032;-75
2022/08/03 05:38:23;;;;;;;7.68;3.13;;;;;;;16.75;100.00;101527.84;5203221;28;20605;-73
2022/08/03 05:40:53;;;;;;;10.95;3.63;;;;;;;16.98;100.00;101532.28;5203939;28;20076;-73
2022/08/03 05:43:24;;;;;;;5.85;2.67;;;;;;;17.16;100.00;101529.97;5203963;28;20056;-72
2022/08/03 05:45:54;;;;;;;7.72;2.75;;;;;;;17.33;100.00;101534.13;5203269;28;20030;-71
2022/08/03 05:48:25;;;;;;;6.03;2.35;;;;;;;17.53;100.00;101530.75;5202709;28;20116;-71
2022/08/03 05:50:55;;;;;;;11.57;2.65;;;;;;;17.73;100.00;101536.38;5203316;28;20086;-72
2022/08/03 05:53:26;;;;;;;9.35;2.65;;;;;;;17.89;100.00;101530.66;5203459;28;20021;-72
2022/08/03 05:55:56;;;;;;;9.80;2.78;;;;;;;18.12;100.00;101535.78;5200077;28;20033;-71
2022/08/03 05:58:26;;;;;;;8.93;2.65;;;;;;;18.32;100.00;101536.78;5203327;28;20558;-71
2022/08/03 06:00:57;;;;;;;7.18;2.40;;;;;;;18.69;100.00;101537.41;5203653;28;20055;-71
2022/08/03 06:03:27;;;;;;;9.05;2.15;;;;;;;19.28;100.00;101541.34;5201649;28;20064;-71
2022/08/03 06:05:58;;;;;;;6.97;2.28;;;;;;;20.29;100.00;101528.31;5202855;28;20116;-72
2022/08/03 06:08:29;;;;;;;9.43;1.95;;;;;;;21.31;100.00;101526.59;5203410;28;20140;-71
2022/08/03 06:10:59;;;;;;;7.40;2.10;;;;;;;21.96;100.00;101523.53;5203874;28;20367;-71
2022/08/03 06:13:31;;;;;;;6.47;1.80;;;;;;;22.71;100.00;101524.19;5202210;28;20029;-72
2022/08/03 06:16:01;;;;;;;7.22;1.45;;;;;;;23.36;100.00;101528.13;5202610;28;20057;-72
2022/08/03 06:18:32;;;;;;;14.77;2.17;;;;;;;24.01;100.00;101531.69;5202821;28;20079;-72
2022/08/03 06:21:03;;;;;;;5.38;1.73;;;;;;;24.32;100.00;101524.13;5202900;28;20412;-72
2022/08/03 06:23:33;;;;;;;11.70;1.80;;;;;;;24.67;100.00;101534.22;5203149;28;20109;-72
2022/08/03 06:26:04;;;;;;;10.10;2.22;;;;;;;25.17;100.00;101534.38;5202755;28;20109;-72
2022/08/03 06:28:34;;;;;;;9.10;2.08;;;;;;;25.45;100.00;101536.25;5201519;28;20028;-72
2022/08/03 06:31:05;;;;;;;9.50;1.98;;;;;;;25.56;100.00;101534.53;5203294;28;20021;-72
2022/08/03 06:33:35;;;;;;;7.68;2.28;;;;;;;25.97;100.00;101533.25;5203421;28;20031;-72
2022/08/03 06:36:06;;;;;;;5.05;2.45;;;;;;;26.26;100.00;101538.63;5206790;28;20108;-72
2022/08/03 06:38:36;;;;;;;10.38;2.00;;;;;;;26.53;100.00;101538.72;5189106;28;20030;-72
2022/08/03 06:41:07;;;;;;;8.52;1.90;;;;;;;27.02;100.00;101534.06;5199414;28;20021;-72
2022/08/03 06:43:37;;;;;;;13.68;2.10;;;;;;;27.33;100.00;101539.91;5189869;28;20491;-72
2022/08/03 06:46:09;;;;;;;9.35;2.03;;;;;;;27.38;100.00;101539.13;5205597;28;20116;-72
2022/08/03 06:48:40;;;;;;;7.85;2.10;;;;;;;27.39;100.00;101538.84;5205275;28;20533;-72
2022/08/03 06:51:11;;;;;;;10.13;2.00;;;;;;;27.63;100.00;101550.38;5205035;28;20025;-72
2022/08/03 06:53:41;;;;;;;8.45;1.70;;;;;;;28.02;100.00;101537.16;5205173;28;20031;-72
2022/08/03 06:56:12;;;;;;;12.40;2.03;;;;;;;28.60;100.00;101551.00;5202008;28;20388;-72
2022/08/03 06:58:42;;;;;;;6.10;1.80;;;;;;;27.99;100.00;101547.91;5205490;28;20138;-72
2022/08/03 07:01:13;;;;;;;9.07;1.50;;;;;;;28.48;100.00;101534.69;5205305;28;20033;-71
2022/08/03 07:03:44;;;;;;;7.43;1.50;;;;;;;28.44;100.00;101541.84;5203351;28;20414;-71
2022/08/03 07:06:14;;;;;;;8.02;1.60;;;;;;;28.64;100.00;101543.84;5204654;28;20100;-72
2022/08/03 07:08:45;;;;;;;10.15;1.83;;;;;;;29.14;100.00;101550.66;5204927;28;20367;-72
2022/08/03 07:11:15;;;;;;;4.75;1.50;;;;;;;28.73;100.00;101549.69;5204742;28;20055;-72
2022/08/03 07:13:46;;;;;;;9.45;2.00;;;;;;;29.33;96.46;101548.19;5204845;28;20410;-72
2022/08/03 07:16:16;;;;;;;6.47;1.70;;;;;;;29.40;94.82;101552.31;5190631;28;20075;-72
2022/08/03 07:18:47;;;;;;;8.38;1.85;;;;;;;30.06;87.52;101559.78;5204807;28;20434;-72
2022/08/03 07:21:17;;;;;;;6.15;1.58;;;;;;;29.86;90.31;101563.41;5204427;28;20436;-72
2022/08/03 07:23:48;;;;;;;11.02;1.70;;;;;;;29.57;87.77;101560.41;5204507;28;20416;-72
2022/08/03 07:26:18;;;;;;;10.65;1.85;;;;;;;29.49;91.88;101560.91;5204430;28;20083;-72
2022/08/03 07:28:49;;;;;;;5.63;1.92;;;;;;;29.51;92.81;101560.63;5204155;28;20024;-72
2022/08/03 07:31:19;;;;;;;13.25;2.13;;;;;;;29.35;90.74;101566.16;5204564;28;20026;-72
2022/08/03 07:33:50;;;;;;;13.30;2.30;;;;;;;29.39;94.14;101560.91;5204439;28;20052;-72
2022/08/03 07:36:21;;;;;;;6.72;1.30;;;;;;;29.64;92.40;101563.69;5204272;28;20538;-72
2022/08/03 07:38:51;;;;;;;8.38;1.38;;;;;;;30.00;93.02;101568.38;5204332;28;20137;-72
2022/08/03 07:41:22;;;;;;;10.63;1.65;;;;;;;30.20;88.86;101571.13;5203830;28;20104;-72
2022/08/03 07:43:52;;;;;;;11.60;2.13;;;;;;;30.34;83.78;101568.59;5204477;28;20212;-72
2022/08/03 07:46:23;;;;;;;12.50;1.60;;;;;;;30.11;85.37;101568.06;5203146;28;20467;-73
2022/08/03 07:48:53;;;;;;;7.43;1.80;;;;;;;30.07;86.95;101557.84;5203345;28;20440;-72
2022/08/03 07:51:24;;;;;;;7.20;1.77;;;;;;;29.42;87.74;101561.19;5203979;28;20025;-73
2022/08/03 07:53:56;;;;;;;8.73;1.17;;;;;;;29.70;88.15;101553.47;5202791;28;20171;-73
2022/08/03 07:56:27;;;;;;;9.38;1.63;;;;;;;30.07;83.43;101555.94;5200721;28;20036;-70
2022/08/03 07:58:58;;;;;;;13.05;2.08;;;;;;;30.22;83.43;101554.22;5204282;28;20025;-70
2022/08/03 08:01:31;;;;;;;9.07;1.73;;;;;;;30.47;78.98;101554.16;5203977;28;20075;-70
2022/08/03 08:04:01;;;;;;;6.63;1.92;;;;;;;30.58;79.40;101547.47;5201849;28;20037;-70
2022/08/03 08:06:32;;;;;;;7.70;2.10;;;;;;;30.67;76.88;101553.22;5203301;28;20560;-70
2022/08/03 08:09:03;;;;;;;10.70;1.83;;;;;;;31.19;74.39;101552.69;5203860;28;20030;-70
2022/08/03 08:11:33;;;;;;;12.13;1.40;;;;;;;31.52;71.04;101553.03;5203905;28;20031;-70
2022/08/03 08:14:04;;;;;;;12.75;1.98;;;;;;;31.23;71.84;101552.09;5203760;28;20025;-70
2022/08/03 08:16:34;;;;;;;7.30;1.90;;;;;;;31.04;73.99;101543.66;5202672;28;20457;-71
2022/08/03 08:19:05;;;;;;;14.25;2.13;;;;;;;31.38;71.48;101549.28;5203872;28;20028;-70
2022/08/03 08:21:35;;;;;;;11.02;2.28;;;;;;;31.33;70.68;101544.59;5202799;28;20037;-70
2022/08/03 08:24:06;;;;;;;10.70;1.92;;;;;;;31.27;71.32;101533.81;5203422;28;20067;-71
2022/08/03 08:26:37;;;;;;;8.98;1.55;;;;;;;30.91;72.29;101534.03;5203606;28;20029;-70
2022/08/03 08:29:08;;;;;;;9.02;2.55;;;;;;;30.93;71.88;101538.19;5203193;28;20167;-71
2022/08/03 08:31:38;;;;;;;7.25;1.70;;;;;;;31.02;72.24;101529.25;5202172;28;20025;-71
2022/08/03 08:34:09;;;;;;;8.93;1.70;;;;;;;31.49;69.63;101542.53;5202757;28;20029;-71
2022/08/03 08:36:40;;;;;;;13.70;2.00;;;;;;;30.75;70.91;101521.41;5203865;28;20033;-71
2022/08/03 08:39:11;;;;;;;11.18;2.13;;;;;;;30.80;75.54;101532.44;5203326;28;20037;-71
2022/08/03 08:41:41;;;;;;;12.80;2.28;;;;;;;31.45;67.71;101530.34;5202557;28;20032;-71
2022/08/03 08:44:12;;;;;;;15.63;2.33;;;;;;;31.00;68.76;101529.56;5202463;28;20029;-71
2022/08/03 08:46:43;;;;;;;10.77;2.10;;;;;;;30.76;71.15;101526.63;5203204;28;20075;-71
2022/08/03 08:49:17;;;;;;;9.73;1.80;;;;;;;30.81;67.17;101529.38;5203321;28;20032;-71
2022/08/03 08:51:49;;;;;;;12.15;2.15;;;;;;;31.44;65.58;101531.47;5202611;28;20032;-71
2022/08/03 08:54:21;;;;;;;12.02;2.17;;;;;;;31.39;64.38;101525.97;5202042;28;20394;-70
2022/08/03 08:56:54;;;;;;;16.40;3.03;;;;;;;30.95;67.86;101519.31;5189929;28;20032;-71
2022/08/03 08:59:26;;;;;;;12.20;2.30;;;;;;;31.18;67.68;101523.34;5202733;28;20033;-71
2022/08/03 09:01:57;;;;;;;12.10;2.33;;;;;;;31.53;65.43;101517.78;5203323;28;20029;-70
2022/08/03 09:04:29;;;;;;;13.07;2.33;;;;;;;31.21;65.43;101513.59;5200487;28;20148;-71
2022/08/03 09:07:01;;;;;;;11.77;1.85;;;;;;;30.99;66.22;101516.81;5202914;28;20036;-71
2022/08/03 09:09:31;;;;;;;10.18;2.00;;;;;;;31.19;65.19;101518.63;5202657;28;20033;-71
2022/08/03 09:12:02;;;;;;;13.35;1.95;;;;;;;31.64;63.76;101519.38;5202949;28;20029;-71
2022/08/03 09:14:33;;;;;;;10.35;1.70;;;;;;;32.03;62.86;101529.53;5192140;28;20021;-71
2022/08/03 09:17:03;;;;;;;11.10;1.67;;;;;;;32.86;56.44;101523.53;5201552;28;20529;-71
2022/08/03 09:19:34;;;;;;;16.67;2.08;;;;;;;32.46;61.16;101524.91;5202212;28;20112;-71
2022/08/03 09:22:24;;;;;;;9.43;2.75;;;;;;;32.06;60.42;101527.00;5202472;28;20547;-71
2022/08/03 09:24:58;;;;;;;7.85;1.65;;;;;;;32.28;60.36;101532.03;5202092;28;20164;-70
2022/08/03 09:27:40;;;;;;;11.68;2.65;;;;;;;32.11;60.44;101526.97;5202325;28;20100;-71
2022/08/03 09:30:14;;;;;;;9.55;1.85;;;;;;;32.49;60.93;101524.31;5202369;28;20104;-71
2022/08/03 09:32:46;;;;;;;9.98;1.92;;;;;;;32.71;57.65;101519.00;5202292;28;20438;-71
2022/08/03 09:35:26;;;;;;;14.52;2.05;;;;;;;32.74;58.64;101521.19;5201473;28;20021;-71
2022/08/03 09:38:10;;;;;;;15.00;2.08;;;;;;;32.77;59.44;101518.94;5202204;28;20036;-71
2022/08/03 09:40:41;;;;;;;15.07;1.73;;;;;;;32.72;59.16;101517.88;5202351;28;20132;-71
2022/08/03 09:43:12;;;;;;;10.70;2.25;;;;;;;32.89;59.80;101519.34;5202261;28;20076;-71
2022/08/03 09:45:43;;;;;;;12.60;2.00;;;;;;;33.17;58.78;101507.22;5201354;28;20053;-71
2022/08/03 09:48:30;;;;;;;6.70;1.35;;;;;;;32.90;57.43;101518.22;5201809;28;20471;-71
2022/08/03 09:51:03;;;;;;;9.13;2.15;;;;;;;33.03;57.25;101511.06;5201824;28;20099;-71
2022/08/03 09:53:45;;;;;;;8.65;1.98;;;;;;;33.43;56.76;101515.19;5202102;28;20021;-71
2022/08/03 09:56:15;;;;;;;13.63;2.28;;;;;;;33.29;56.59;101511.53;5197406;28;20032;-71
2022/08/03 09:58:46;;;;;;;12.20;2.05;;;;;;;32.93;56.37;101521.22;5201920;28;20033;-71
2022/08/03 10:01:17;;;;;;;8.27;1.50;;;;;;;32.82;57.25;101511.34;5201878;28;20041;-71
2022/08/03 10:03:58;;;;;;;17.27;2.17;;;;;;;32.77;57.29;101518.94;5201879;28;20376;-71
2022/08/03 10:06:28;;;;;;;12.55;1.80;;;;;;;32.26;59.38;101522.34;5201030;28;20029;-70
2022/08/03 10:09:12;;;;;;;9.13;2.00;;;;;;;32.51;58.51;101515.69;5200148;28;20067;-71
2022/08/03 10:11:45;;;;;;;9.73;1.70;;;;;;;32.33;60.48;101509.78;5201606;28;20021;-71
2022/08/03 10:17:05;;;;;;;8.65;1.92;;;;;;;32.87;58.62;101505.72;5201160;28;20146;-70
2022/08/03 10:19:35;;;;;;;7.90;1.65;;;;;;;33.12;58.90;101500.94;5201064;28;20067;-71
2022/08/03 10:22:12;;;;;;;8.25;1.73;;;;;;;32.72;59.40;101501.22;5201294;28;20101;-71
2022/08/03 10:24:59;;;;;;;9.27;1.88;;;;;;;32.93;59.79;101498.16;5201222;28;20047;-71
2022/08/03 10:27:46;;;;;;;13.18;1.70;;;;;;;33.29;56.19;101494.84;5201276;28;20075;-71
2022/08/03 10:30:17;;;;;;;8.68;1.70;;;;;;;33.24;55.98;101490.19;5201051;28;20109;-71
2022/08/03 10:32:53;;;;;;;6.70;1.42;;;;;;;33.02;56.12;101481.63;5201533;28;20023;-71
2022/08/03 10:35:25;;;;;;;8.20;1.52;;;;;;;32.89;56.88;101481.28;5200609;28;20255;-71
2022/08/03 10:38:13;;;;;;;5.45;1.30;;;;;;;32.92;57.81;101486.22;5201539;28;20028;-71
2022/08/03 10:40:44;;;;;;;7.32;1.48;;;;;;;33.04;58.28;101483.00;5201182;28;20029;-71
2022/08/03 10:43:21;;;;;;;5.78;1.40;;;;;;;32.38;58.50;101483.91;5200763;28;20021;-71
2022/08/03 10:45:52;;;;;;;7.15;1.58;;;;;;;32.12;60.37;101486.97;5200533;28;20487;-71
2022/08/03 10:48:25;;;;;;;3.90;1.30;;;;;;;32.35;59.88;101478.94;5200021;28;20017;-71
2022/08/03 10:50:56;;;;;;;8.00;2.00;;;;;;;32.62;57.56;101481.91;5200946;28;20789;-71
2022/08/03 10:53:41;;;;;;;9.10;1.60;;;;;;;32.86;56.55;101476.28;5201183;28;20025;-71
2022/08/03 10:59:59;;;;;;;8.82;1.58;;;;;;;33.15;58.46;101466.97;5198523;28;20483;-70
2022/08/03 11:03:07;;;;;;;8.68;1.33;;;;;;;33.03;56.89;101463.81;5201263;28;20029;-71
2022/08/03 11:06:12;;;;;;;3.83;1.13;;;;;;;33.09;57.41;101463.47;5196326;28;20025;-71
2022/08/03 11:08:44;;;;;;;6.57;1.35;;;;;;;33.45;55.66;101458.13;5195518;28;20030;-71
2022/08/03 11:11:15;;;;;;;5.85;1.50;;;;;;;33.36;55.75;101453.56;5201114;28;20112;-71
2022/08/03 11:13:59;;;;;;;10.77;1.40;;;;;;;33.30;53.80;101463.94;5200383;28;20104;-71
2022/08/03 11:16:34;;;;;;;5.68;1.77;;;;;;;33.04;53.65;101451.59;5200254;28;20084;-71
2022/08/03 11:19:07;;;;;;;6.88;1.58;;;;;;;32.84;55.74;101452.72;5200986;28;20025;-71
2022/08/03 11:21:48;;;;;;;9.40;1.48;;;;;;;32.98;54.70;101448.06;5204024;28;20116;-71
2022/08/03 11:24:56;;;;;;;4.28;1.35;;;;;;;32.86;55.98;101444.91;5204095;28;20037;-71
2022/08/03 11:27:30;;;;;;;6.07;1.30;;;;;;;32.89;54.89;101444.31;5204653;28;20033;-71
2022/08/03 11:30:02;;;;;;;6.88;1.40;;;;;;;33.03;55.08;101447.16;5204527;28;20599;-71
2022/08/03 11:32:52;;;;;;;9.05;1.33;;;;;;;32.64;55.27;101456.63;5204445;28;20400;-71
2022/08/03 11:35:57;;;;;;;3.55;1.10;;;;;;;32.52;55.71;101454.28;5203972;28;20494;-71
2022/08/03 11:38:28;;;;;;;3.33;1.15;;;;;;;32.45;55.69;101459.41;5204246;28;20026;-71
2022/08/03 11:41:01;;;;;;;8.23;1.25;;;;;;;32.47;56.21;101454.34;5203835;28;19924;-71
2022/08/03 11:43:33;;;;;;;6.00;1.13;;;;;;;32.63;56.17;101450.25;5204324;28;20017;-71
2022/08/03 11:46:07;;;;;;;3.58;1.05;;;;;;;32.79;55.04;101444.47;5204193;28;20063;-71
2022/08/03 11:48:41;;;;;;;5.10;1.15;;;;;;;32.81;54.62;101444.97;5196130;28;20021;-71
2022/08/03 11:51:31;;;;;;;4.93;1.23;;;;;;;32.77;55.64;101443.94;5203791;28;20064;-71
2022/08/03 11:54:04;;;;;;;5.50;1.25;;;;;;;33.03;56.59;101439.63;5199864;28;20052;-71
2022/08/03 11:56:48;;;;;;;5.00;0.90;;;;;;;32.88;54.11;101445.41;5198415;28;20052;-71
2022/08/03 11:59:31;;;;;;;4.40;1.23;;;;;;;32.95;52.46;101443.13;5204160;28;20026;-71
2022/08/03 12:02:16;;;;;;;1.85;0.98;;;;;;;33.34;53.29;101448.31;5224754;28;20029;-71